Time;durP1;ratioP1;P1;durP2;ratioP2;P2;SDS_P1;SDS_P2;PMS_P1;PMS_P2;Temp;Humidity;BMP_temperature;BMP_pressure;BME280_temperature;BME280_humidity;BME280_pressure;Samples;Min_cycle;Max_cycle;Signal;HPM_P1;HPM_P2
2021/06/11 00:02:16;;;;;;;5.45;3.88;;;;;;;-140.79;100.00;63287.88;4952807;29;20082;-74
2021/06/11 00:04:41;;;;;;;5.47;3.72;;;;;;;-140.79;100.00;63287.88;4952595;29;20118;-74
2021/06/11 00:07:07;;;;;;;6.05;3.65;;;;;;;-140.79;100.00;63287.88;4952493;29;20071;-75
2021/06/11 00:09:32;;;;;;;5.60;3.72;;;;;;;-140.79;100.00;63287.88;4952358;29;20027;-74
2021/06/11 00:11:58;;;;;;;6.20;4.18;;;;;;;-140.79;100.00;63287.88;4952298;29;20035;-74
2021/06/11 00:14:24;;;;;;;4.93;3.70;;;;;;;-140.79;100.00;63287.88;4952073;29;20467;-74
2021/06/11 00:16:49;;;;;;;6.28;3.90;;;;;;;-140.79;100.00;63287.88;4952397;29;20027;-74
2021/06/11 00:19:14;;;;;;;5.20;3.72;;;;;;;-140.79;100.00;63287.88;4935297;29;20035;-74
2021/06/11 00:21:40;;;;;;;5.53;3.97;;;;;;;-140.79;100.00;63287.88;4952195;29;20030;-75
2021/06/11 00:24:06;;;;;;;4.28;3.80;;;;;;;-140.79;100.00;63287.88;4952107;29;20427;-74
2021/06/11 00:26:31;;;;;;;5.07;3.65;;;;;;;-140.79;100.00;63287.88;4951976;28;20026;-74
2021/06/11 00:28:57;;;;;;;5.93;3.70;;;;;;;-140.79;100.00;63287.88;4952220;29;20038;-74
2021/06/11 00:31:22;;;;;;;5.13;3.95;;;;;;;-140.79;100.00;63287.88;4951786;29;20035;-74
2021/06/11 00:33:48;;;;;;;5.93;3.47;;;;;;;-140.79;100.00;63287.88;4952185;29;20859;-74
2021/06/11 00:36:13;;;;;;;5.60;3.53;;;;;;;-140.79;100.00;63287.88;4934739;29;20542;-74
2021/06/11 00:38:38;;;;;;;6.45;3.97;;;;;;;-140.79;100.00;63287.88;4951903;29;20031;-73
2021/06/11 00:41:04;;;;;;;7.05;4.40;;;;;;;-140.79;100.00;63287.88;4934582;29;20058;-74
2021/06/11 00:43:29;;;;;;;4.97;3.42;;;;;;;-140.79;100.00;63287.88;4952071;29;20057;-74
2021/06/11 00:45:55;;;;;;;4.10;3.50;;;;;;;-140.79;100.00;63287.88;4951445;29;20031;-75
2021/06/11 00:48:20;;;;;;;5.05;3.60;;;;;;;-140.79;100.00;63287.88;4951806;29;20066;-74
2021/06/11 00:50:46;;;;;;;5.53;3.65;;;;;;;-140.79;100.00;63287.88;4950732;29;20508;-74
2021/06/11 00:53:11;;;;;;;5.68;3.45;;;;;;;-140.79;100.00;63287.88;4951140;29;20038;-74
2021/06/11 00:55:37;;;;;;;5.45;3.90;;;;;;;-140.79;100.00;63287.88;4951712;29;20031;-74
2021/06/11 00:58:03;;;;;;;5.80;3.83;;;;;;;-140.79;100.00;63287.88;4951634;29;20404;-74
2021/06/11 01:00:28;;;;;;;4.13;3.58;;;;;;;-140.79;100.00;63287.88;4951607;29;20138;-74
2021/06/11 01:02:54;;;;;;;5.45;3.60;;;;;;;-140.79;100.00;63287.88;4951113;29;20766;-74
2021/06/11 01:05:19;;;;;;;6.03;3.63;;;;;;;-140.79;100.00;63287.88;4951407;29;20027;-74
2021/06/11 01:07:47;;;;;;;4.93;3.53;;;;;;;-140.79;100.00;63287.88;4933596;29;20403;-74
2021/06/11 01:10:13;;;;;;;4.88;3.47;;;;;;;-140.79;100.00;63287.88;4951320;29;20059;-74
2021/06/11 01:12:39;;;;;;;5.82;4.00;;;;;;;-140.79;100.00;63287.88;4934023;29;20096;-74
2021/06/11 01:15:06;;;;;;;4.60;3.80;;;;;;;-140.79;100.00;63287.88;4934052;29;20474;-74
2021/06/11 01:17:34;;;;;;;5.82;3.70;;;;;;;-140.79;100.00;63287.88;4951026;29;20114;-74
2021/06/11 01:20:00;;;;;;;4.93;3.55;;;;;;;-140.79;100.00;63287.88;4934316;29;20123;-74
2021/06/11 01:22:36;;;;;;;4.35;3.42;;;;;;;-140.79;100.00;63287.88;4934137;29;20031;-75
2021/06/11 01:25:07;;;;;;;5.60;3.65;;;;;;;-140.79;100.00;63287.88;4933923;29;20042;-74
2021/06/11 01:27:33;;;;;;;3.85;3.22;;;;;;;-140.79;100.00;63287.88;4950729;29;20031;-74
2021/06/11 01:30:05;;;;;;;5.65;3.65;;;;;;;-140.79;100.00;63287.88;4933991;29;20102;-74
2021/06/11 01:32:32;;;;;;;5.55;3.60;;;;;;;-140.79;100.00;63287.88;4934414;29;20035;-74
2021/06/11 01:34:58;;;;;;;5.45;3.78;;;;;;;-140.79;100.00;63287.88;4950969;29;20062;-74
2021/06/11 01:37:24;;;;;;;4.35;3.22;;;;;;;-140.79;100.00;63287.88;4933482;29;20411;-75
2021/06/11 01:39:54;;;;;;;4.95;3.20;;;;;;;-140.79;100.00;63287.88;4933686;29;20597;-75
2021/06/11 01:42:20;;;;;;;6.88;3.75;;;;;;;-140.79;100.00;63287.88;4933699;29;20088;-74
2021/06/11 01:44:45;;;;;;;7.25;3.88;;;;;;;-140.79;100.00;63287.88;4933450;29;20047;-74
2021/06/11 01:47:12;;;;;;;5.50;3.83;;;;;;;-140.79;100.00;63287.88;4917663;29;20031;-75
2021/06/11 01:49:37;;;;;;;5.97;3.92;;;;;;;-140.79;100.00;63287.88;4949501;29;20105;-75
2021/06/11 01:52:04;;;;;;;6.18;4.07;;;;;;;-140.79;100.00;63287.88;4933291;29;20491;-74
2021/06/11 01:54:29;;;;;;;6.07;3.85;;;;;;;-140.79;100.00;63287.88;4950600;29;20023;-74
2021/06/11 01:56:55;;;;;;;5.50;3.72;;;;;;;-140.79;100.00;63287.88;4933386;29;20027;-74
2021/06/11 01:59:20;;;;;;;4.88;3.63;;;;;;;-140.79;100.00;63287.88;4917379;29;20042;-74
2021/06/11 02:01:45;;;;;;;5.45;3.80;;;;;;;-140.79;100.00;63287.88;4917534;29;20061;-75
2021/06/11 02:04:11;;;;;;;5.47;3.80;;;;;;;-140.79;100.00;63287.88;4929722;29;20059;-74
2021/06/11 02:06:36;;;;;;;5.03;4.10;;;;;;;-140.79;100.00;63287.88;4931245;29;20047;-75
2021/06/11 02:09:02;;;;;;;6.45;3.45;;;;;;;-140.79;100.00;63287.88;4931116;29;20036;-74
2021/06/11 02:11:28;;;;;;;4.68;3.47;;;;;;;-140.79;100.00;63287.88;4931542;29;20039;-75
2021/06/11 02:13:54;;;;;;;5.78;3.50;;;;;;;-140.79;100.00;63287.88;4930003;29;20019;-74
2021/06/11 02:16:20;;;;;;;4.10;3.50;;;;;;;-140.79;100.00;63287.88;4929841;29;20074;-74
2021/06/11 02:18:45;;;;;;;6.05;3.80;;;;;;;-140.79;100.00;63287.88;4929442;29;20036;-74
2021/06/11 02:21:11;;;;;;;6.15;3.42;;;;;;;-140.79;100.00;63287.88;4929641;29;20106;-74
2021/06/11 02:23:37;;;;;;;4.63;3.67;;;;;;;-140.79;100.00;63287.88;4945818;29;20080;-74
2021/06/11 02:26:03;;;;;;;7.22;3.90;;;;;;;-140.79;100.00;63287.88;4945626;29;20424;-74
2021/06/11 02:28:29;;;;;;;4.65;4.05;;;;;;;-140.79;100.00;63287.88;4930364;29;20547;-74
2021/06/11 02:30:56;;;;;;;5.80;3.55;;;;;;;-140.79;100.00;63287.88;4929838;29;20031;-74
2021/06/11 02:33:22;;;;;;;5.63;3.80;;;;;;;-140.79;100.00;63287.88;4930810;29;20063;-74
2021/06/11 02:35:47;;;;;;;5.25;3.33;;;;;;;-140.79;100.00;63287.88;4929726;29;20031;-74
2021/06/11 02:38:13;;;;;;;5.85;3.60;;;;;;;-140.79;100.00;63287.88;4929749;29;20035;-74
2021/06/11 02:40:38;;;;;;;7.47;3.95;;;;;;;-140.79;100.00;63287.88;4930874;29;20266;-74
2021/06/11 02:43:08;;;;;;;4.97;3.92;;;;;;;-140.79;100.00;63287.88;4930555;29;20094;-74
2021/06/11 02:45:36;;;;;;;7.53;4.38;;;;;;;-140.79;100.00;63287.88;4930646;29;20039;-75
2021/06/11 02:48:17;;;;;;;4.97;3.58;;;;;;;-140.79;100.00;63287.88;4929631;29;20038;-75
2021/06/11 02:51:05;;;;;;;6.25;3.28;;;;;;;-140.79;100.00;63287.88;4930691;29;20051;-75
2021/06/11 02:53:30;;;;;;;8.02;4.57;;;;;;;-140.79;100.00;63287.88;4930829;29;20032;-74
2021/06/11 02:56:01;;;;;;;4.85;3.30;;;;;;;-140.79;100.00;63287.88;4929596;29;20075;-74
2021/06/11 02:58:47;;;;;;;4.65;3.60;;;;;;;-140.79;100.00;63287.88;4945230;29;20419;-73
2021/06/11 03:01:13;;;;;;;6.25;3.40;;;;;;;-140.79;100.00;63287.88;4944405;29;20040;-74
2021/06/11 03:03:39;;;;;;;4.70;3.30;;;;;;;-140.79;100.00;63287.88;4937326;29;20061;-74
2021/06/11 03:06:05;;;;;;;5.82;3.60;;;;;;;-140.79;100.00;63287.88;4916755;29;20039;-75
2021/06/11 03:08:32;;;;;;;5.15;3.33;;;;;;;-140.79;100.00;63287.88;4949806;29;20399;-74
2021/06/11 03:11:02;;;;;;;3.97;3.40;;;;;;;-140.79;100.00;63287.88;4917331;29;20039;-74
2021/06/11 03:13:28;;;;;;;5.47;3.00;;;;;;;-140.79;100.00;63287.88;4932894;29;20043;-74
2021/06/11 03:15:53;;;;;;;4.22;3.35;;;;;;;-140.79;100.00;63287.88;4949614;29;20082;-74
2021/06/11 03:18:29;;;;;;;3.97;3.20;;;;;;;-140.79;100.00;63287.88;4949703;29;20031;-74
2021/06/11 03:20:57;;;;;;;6.28;3.38;;;;;;;-140.79;100.00;63287.88;4927606;29;20098;-74
2021/06/11 03:23:40;;;;;;;4.60;3.10;;;;;;;-140.79;100.00;63287.88;4929229;29;20419;-74
2021/06/11 03:26:06;;;;;;;5.20;3.63;;;;;;;-140.79;100.00;63287.88;4940170;29;20078;-75
2021/06/11 03:28:43;;;;;;;3.90;2.88;;;;;;;-140.79;100.00;63287.88;4932310;29;20023;-74
2021/06/11 03:31:11;;;;;;;5.13;3.35;;;;;;;-140.79;100.00;63287.88;4952405;28;20023;-74
2021/06/11 03:33:37;;;;;;;4.65;3.00;;;;;;;-140.79;100.00;63287.88;4953156;29;20581;-74
2021/06/11 03:36:27;;;;;;;4.35;2.90;;;;;;;-140.79;100.00;63287.88;4935570;29;20015;-74
2021/06/11 03:38:55;;;;;;;;;;;;;;;-140.79;100.00;63287.88;4936386;29;20049;-75
2021/06/11 03:41:20;;;;;;;5.65;3.58;;;;;;;-140.79;100.00;63287.88;4935849;29;19915;-74
2021/06/11 03:43:47;;;;;;;6.57;4.10;;;;;;;-140.79;100.00;63287.88;4935767;29;20061;-74
2021/06/11 03:46:13;;;;;;;5.93;3.83;;;;;;;-140.79;100.00;63287.88;4935269;29;20480;-74
2021/06/11 03:48:38;;;;;;;5.38;3.70;;;;;;;-140.79;100.00;63287.88;4952783;29;20058;-74
2021/06/11 03:51:04;;;;;;;6.00;3.83;;;;;;;-140.79;100.00;63287.88;4935962;29;20031;-74
2021/06/11 03:53:29;;;;;;;6.50;3.85;;;;;;;-140.79;100.00;63287.88;4935756;29;20102;-74
2021/06/11 03:55:59;;;;;;;6.35;4.10;;;;;;;-140.79;100.00;63287.88;4933289;29;20058;-74
2021/06/11 03:58:35;;;;;;;7.20;4.38;;;;;;;-140.79;100.00;63287.88;4932861;29;20027;-72
2021/06/11 04:01:01;;;;;;;7.05;4.25;;;;;;;-140.79;100.00;63287.88;4944602;29;20530;-74
2021/06/11 04:03:27;;;;;;;7.97;4.72;;;;;;;-140.79;100.00;63287.88;4932083;29;20443;-74
2021/06/11 04:05:55;;;;;;;7.65;4.45;;;;;;;-140.79;100.00;63287.88;4949165;29;20035;-76
2021/06/11 04:08:20;;;;;;;8.88;4.32;;;;;;;-140.79;100.00;63287.88;4916471;29;20035;-80
2021/06/11 04:10:55;;;;;;;8.70;4.70;;;;;;;-140.79;100.00;63287.88;4935484;29;20023;-82
2021/06/11 04:13:47;;;;;;;6.30;4.68;;;;;;;-140.79;100.00;63287.88;4934694;29;20058;-78
2021/06/11 04:16:40;;;;;;;7.53;4.90;;;;;;;-140.79;100.00;63287.88;4950277;29;20042;-73
2021/06/11 04:19:09;;;;;;;7.75;5.05;;;;;;;-140.79;100.00;63287.88;4949134;29;20117;-78
2021/06/11 04:21:34;;;;;;;7.43;4.97;;;;;;;-140.79;100.00;63287.88;4935260;29;20166;-78
2021/06/11 04:24:06;;;;;;;6.05;5.03;;;;;;;-140.79;100.00;63287.88;4950639;29;20628;-75
2021/06/11 04:26:33;;;;;;;7.57;4.97;;;;;;;-140.79;100.00;63287.88;4933550;29;20038;-77
2021/06/11 04:28:58;;;;;;;6.95;5.40;;;;;;;-140.79;100.00;63287.88;4953441;29;20039;-77
2021/06/11 04:31:24;;;;;;;9.05;5.28;;;;;;;-140.79;100.00;63287.88;4931638;29;20406;-77
2021/06/11 04:33:49;;;;;;;8.10;5.10;;;;;;;-140.79;100.00;63287.88;4938229;29;20051;-75
2021/06/11 04:36:15;;;;;;;7.97;5.15;;;;;;;-140.79;100.00;63287.88;4950957;29;20023;-74
2021/06/11 04:39:01;;;;;;;6.90;5.35;;;;;;;-140.79;100.00;63287.88;4937220;29;20023;-73
2021/06/11 04:41:28;;;;;;;6.93;5.35;;;;;;;-140.79;100.00;63287.88;4947777;28;20031;-73
2021/06/11 04:43:56;;;;;;;10.07;5.93;;;;;;;-140.79;100.00;63287.88;4947802;29;20027;-74
2021/06/11 04:46:21;;;;;;;7.00;5.40;;;;;;;-140.79;100.00;63287.88;4950989;29;20039;-73
2021/06/11 04:48:47;;;;;;;5.78;5.03;;;;;;;-140.79;100.00;63287.88;4951565;29;20039;-73
2021/06/11 04:51:13;;;;;;;10.27;5.22;;;;;;;-140.79;100.00;63287.88;4946382;29;20031;-73
2021/06/11 04:53:38;;;;;;;9.27;5.20;;;;;;;-140.79;100.00;63287.88;4919044;29;20035;-72
2021/06/11 04:56:07;;;;;;;7.63;5.10;;;;;;;-140.79;100.00;63287.88;4949655;29;20019;-73
2021/06/11 04:58:37;;;;;;;9.65;5.03;;;;;;;-140.79;100.00;63287.88;4935717;29;20050;-74
2021/06/11 05:01:03;;;;;;;9.48;4.78;;;;;;;-140.79;100.00;63287.88;4929006;29;20031;-76
2021/06/11 05:03:28;;;;;;;8.27;4.38;;;;;;;-140.79;100.00;63287.88;4934723;29;20094;-74
2021/06/11 05:05:54;;;;;;;5.97;4.05;;;;;;;-140.79;100.00;63287.88;4950796;29;20862;-79
2021/06/11 05:08:20;;;;;;;6.40;4.38;;;;;;;-140.79;100.00;63287.88;4934253;29;20039;-77
2021/06/11 05:10:45;;;;;;;5.60;4.00;;;;;;;-140.79;100.00;63287.88;4916677;29;20053;-75
2021/06/11 05:13:11;;;;;;;10.23;4.32;;;;;;;-140.79;100.00;63287.88;4951058;29;20487;-76
2021/06/11 05:15:36;;;;;;;6.43;4.40;;;;;;;-140.79;100.00;63287.88;4933550;29;20019;-75
2021/06/11 05:18:05;;;;;;;8.27;4.78;;;;;;;-140.79;100.00;63287.88;4932095;29;20411;-75
2021/06/11 05:20:31;;;;;;;7.32;4.18;;;;;;;-140.79;100.00;63287.88;4948906;29;20043;-76
2021/06/11 05:22:57;;;;;;;5.38;4.43;;;;;;;-140.79;100.00;63287.88;4932474;29;20427;-75
2021/06/11 05:25:22;;;;;;;5.93;4.07;;;;;;;-140.79;100.00;63287.88;4932456;29;20027;-75
2021/06/11 05:27:48;;;;;;;5.50;4.18;;;;;;;-140.79;100.00;63287.88;4950107;29;20046;-73
2021/06/11 05:30:13;;;;;;;6.53;4.07;;;;;;;-140.79;100.00;63287.88;4930382;29;20450;-74
2021/06/11 05:32:39;;;;;;;5.10;4.30;;;;;;;-140.79;100.00;63287.88;4948412;29;20046;-73
2021/06/11 05:35:06;;;;;;;5.55;3.60;;;;;;;-140.79;100.00;63287.88;4947328;29;20074;-75
2021/06/11 05:37:31;;;;;;;6.50;3.90;;;;;;;-140.79;100.00;63287.88;4947910;29;20422;-74
2021/06/11 05:39:57;;;;;;;4.22;3.20;;;;;;;-140.79;100.00;63287.88;4949144;29;20031;-73
2021/06/11 05:42:22;;;;;;;6.50;4.00;;;;;;;-140.79;100.00;63287.88;4946372;29;20023;-73
2021/06/11 05:44:47;;;;;;;6.18;3.75;;;;;;;-140.79;100.00;63287.88;4944304;29;20047;-74
2021/06/11 05:47:13;;;;;;;7.13;4.18;;;;;;;-140.79;100.00;63287.88;4946991;29;20511;-76
2021/06/11 05:49:39;;;;;;;6.10;3.67;;;;;;;-140.79;100.00;63287.88;4913993;29;20031;-74
2021/06/11 05:52:04;;;;;;;6.80;3.58;;;;;;;-140.79;100.00;63287.88;4946909;29;20035;-74
2021/06/11 05:54:30;;;;;;;7.32;3.65;;;;;;;-140.79;100.00;63287.88;4947700;29;20034;-73
2021/06/11 05:56:58;;;;;;;5.25;3.63;;;;;;;-140.79;100.00;63287.88;4910913;29;20091;-72
2021/06/11 05:59:24;;;;;;;4.85;3.55;;;;;;;-140.79;100.00;63287.88;4949652;29;20031;-76
2021/06/11 06:01:49;;;;;;;6.15;3.40;;;;;;;-140.79;100.00;63287.88;4948592;29;20039;-77
2021/06/11 06:04:14;;;;;;;6.75;3.60;;;;;;;-140.79;100.00;63287.88;4931240;29;20055;-73
2021/06/11 06:06:40;;;;;;;5.15;3.35;;;;;;;-140.79;100.00;63287.88;4929541;29;20035;-75
2021/06/11 06:09:05;;;;;;;5.70;3.20;;;;;;;-140.79;100.00;63287.88;4930037;29;20042;-75
2021/06/11 06:11:31;;;;;;;5.32;3.38;;;;;;;-140.79;100.00;63287.88;4913036;29;20019;-75
2021/06/11 06:13:56;;;;;;;4.45;3.50;;;;;;;-140.79;100.00;63287.88;4947500;29;20034;-76
2021/06/11 06:16:22;;;;;;;4.70;3.20;;;;;;;-140.79;100.00;63287.88;4926364;29;20019;-75
2021/06/11 06:18:47;;;;;;;6.07;3.47;;;;;;;-140.79;100.00;63287.88;4928154;29;20027;-76
2021/06/11 06:21:12;;;;;;;5.88;3.75;;;;;;;-140.79;100.00;63287.88;4930115;29;20023;-75
2021/06/11 06:23:38;;;;;;;3.60;3.10;;;;;;;-140.79;100.00;63287.88;4947335;29;20030;-75
2021/06/11 06:26:04;;;;;;;5.05;3.58;;;;;;;-140.79;100.00;63287.88;4947290;29;20031;-74
2021/06/11 06:28:29;;;;;;;5.05;3.45;;;;;;;-140.79;100.00;63287.88;4948457;29;20025;-75
2021/06/11 06:30:55;;;;;;;4.38;3.28;;;;;;;-140.79;100.00;63287.88;4928533;29;20038;-75
2021/06/11 06:33:20;;;;;;;6.97;3.40;;;;;;;-140.79;100.00;63287.88;4947153;29;20031;-75
2021/06/11 06:35:46;;;;;;;5.53;3.65;;;;;;;-140.79;100.00;63287.88;4945312;29;20023;-76
2021/06/11 06:38:13;;;;;;;6.20;3.67;;;;;;;-140.79;100.00;63287.88;4947813;29;20023;-75
2021/06/11 06:40:39;;;;;;;7.22;3.45;;;;;;;-140.79;100.00;63287.88;4947977;29;20025;-75
2021/06/11 06:43:04;;;;;;;6.20;3.65;;;;;;;-140.79;100.00;63287.88;4947878;29;20027;-75
2021/06/11 06:45:30;;;;;;;7.00;3.40;;;;;;;-140.79;100.00;63287.88;4930964;29;20019;-75
2021/06/11 06:47:55;;;;;;;6.18;4.20;;;;;;;-140.79;100.00;63287.88;4931023;29;20038;-75
2021/06/11 06:50:21;;;;;;;5.97;3.50;;;;;;;-140.79;100.00;63287.88;4931965;29;20031;-75
2021/06/11 06:52:52;;;;;;;5.43;3.70;;;;;;;-140.79;100.00;63287.88;4949360;29;20062;-75
2021/06/11 06:55:18;;;;;;;5.22;3.63;;;;;;;-140.79;100.00;63287.88;4944218;29;20442;-75
2021/06/11 06:57:43;;;;;;;6.22;3.90;;;;;;;-140.79;100.00;63287.88;4947093;29;20027;-75
2021/06/11 07:00:09;;;;;;;6.90;3.40;;;;;;;-140.79;100.00;63287.88;4947645;29;20125;-75
2021/06/11 07:02:35;;;;;;;5.75;3.78;;;;;;;-140.79;100.00;63287.88;4946434;29;20422;-74
2021/06/11 07:05:00;;;;;;;4.18;3.05;;;;;;;-140.79;100.00;63287.88;4948435;28;20078;-75
2021/06/11 07:07:26;;;;;;;3.42;2.85;;;;;;;-140.79;100.00;63287.88;4950587;29;20424;-75
2021/06/11 07:09:51;;;;;;;7.00;3.60;;;;;;;-140.79;100.00;63287.88;4950107;29;20435;-75
2021/06/11 07:12:17;;;;;;;7.45;3.55;;;;;;;-140.79;100.00;63287.88;4934418;29;20479;-75
2021/06/11 07:14:42;;;;;;;5.55;3.70;;;;;;;-140.79;100.00;63287.88;4934720;29;20038;-75
2021/06/11 07:17:08;;;;;;;5.15;3.10;;;;;;;-140.79;100.00;63287.88;4945218;29;20023;-74
2021/06/11 07:19:33;;;;;;;4.60;3.38;;;;;;;-140.79;100.00;63287.88;4919734;29;20455;-72
2021/06/11 07:21:59;;;;;;;4.45;3.70;;;;;;;-140.79;100.00;63287.88;4940655;29;20036;-77
2021/06/11 07:24:24;;;;;;;7.82;4.25;;;;;;;-140.79;100.00;63287.88;4932993;29;20059;-79
2021/06/11 07:26:50;;;;;;;7.55;4.25;;;;;;;-140.79;100.00;63287.88;4932879;29;20020;-76
2021/06/11 07:29:16;;;;;;;6.70;4.03;;;;;;;-140.79;100.00;63287.88;4937295;29;20098;-77
2021/06/11 07:31:41;;;;;;;5.13;3.55;;;;;;;-140.79;100.00;63287.88;4934141;29;20048;-76
2021/06/11 07:34:07;;;;;;;6.75;4.07;;;;;;;-140.79;100.00;63287.88;4949679;29;20034;-76
2021/06/11 07:36:32;;;;;;;6.10;3.67;;;;;;;-140.79;100.00;63287.88;4934766;29;20031;-76
2021/06/11 07:38:57;;;;;;;6.93;3.47;;;;;;;-140.79;100.00;63287.88;4935753;29;20034;-77
2021/06/11 07:41:23;;;;;;;5.95;3.60;;;;;;;-140.79;100.00;63287.88;4951873;29;20039;-77
2021/06/11 07:43:52;;;;;;;6.65;3.60;;;;;;;-140.79;100.00;63287.88;4951215;29;20050;-77
2021/06/11 07:46:18;;;;;;;7.25;3.60;;;;;;;-140.79;100.00;63287.88;4950352;29;20122;-76
2021/06/11 07:48:43;;;;;;;5.30;3.47;;;;;;;-140.79;100.00;63287.88;4949126;29;20043;-77
2021/06/11 07:51:09;;;;;;;5.13;3.33;;;;;;;-140.79;100.00;63287.88;4947066;29;20508;-76
2021/06/11 07:53:34;;;;;;;4.50;3.50;;;;;;;-140.79;100.00;63287.88;4949148;29;20035;-73
2021/06/11 07:56:00;;;;;;;4.57;3.53;;;;;;;-140.79;100.00;63287.88;4947530;29;20090;-75
2021/06/11 07:58:26;;;;;;;5.72;3.35;;;;;;;-140.79;100.00;63287.88;4949734;29;20050;-74
2021/06/11 08:00:51;;;;;;;5.25;3.17;;;;;;;-140.79;100.00;63287.88;4931374;29;20027;-77
2021/06/11 08:03:17;;;;;;;6.93;3.40;;;;;;;-140.79;100.00;63287.88;4948139;29;20058;-77
2021/06/11 08:05:42;;;;;;;5.82;3.92;;;;;;;-140.79;100.00;63287.88;4931352;29;20122;-77
2021/06/11 08:08:08;;;;;;;6.63;4.05;;;;;;;-140.79;100.00;63287.88;4938739;29;20032;-75
2021/06/11 08:10:33;;;;;;;5.97;4.20;;;;;;;-140.79;100.00;63287.88;4941478;29;20035;-75
2021/06/11 08:12:59;;;;;;;5.25;3.58;;;;;;;-140.79;100.00;63287.88;4927483;29;20035;-76
2021/06/11 08:15:24;;;;;;;5.50;4.03;;;;;;;-140.79;100.00;63287.88;4946630;28;20519;-77
2021/06/11 08:17:50;;;;;;;5.88;3.38;;;;;;;-140.79;100.00;63287.88;4944137;29;20038;-77
2021/06/11 08:20:16;;;;;;;6.32;3.75;;;;;;;-140.79;100.00;63287.88;4946607;29;20039;-76
2021/06/11 08:22:41;;;;;;;5.68;3.67;;;;;;;-140.79;100.00;63287.88;4942468;29;20480;-78
2021/06/11 08:25:08;;;;;;;4.35;3.45;;;;;;;-140.79;100.00;63287.88;4944941;29;20044;-76
2021/06/11 08:27:33;;;;;;;4.90;3.80;;;;;;;-140.79;100.00;63287.88;4945624;29;20053;-76
2021/06/11 08:29:59;;;;;;;6.90;3.40;;;;;;;-140.79;100.00;63287.88;4944394;29;20035;-77
2021/06/11 08:32:25;;;;;;;5.88;3.45;;;;;;;-140.79;100.00;63287.88;4942839;29;20046;-76
2021/06/11 08:34:50;;;;;;;7.22;3.80;;;;;;;-140.79;100.00;63287.88;4919235;29;20423;-77
2021/06/11 08:37:16;;;;;;;5.93;3.20;;;;;;;-140.79;100.00;63287.88;4926441;29;20027;-76
2021/06/11 08:39:41;;;;;;;4.88;3.35;;;;;;;-140.79;100.00;63287.88;4947845;29;20122;-76
2021/06/11 08:42:07;;;;;;;3.85;3.15;;;;;;;-140.79;100.00;63287.88;4938620;29;20043;-75
2021/06/11 08:44:33;;;;;;;5.18;3.97;;;;;;;-140.79;100.00;63287.88;5013862;23;20055;-75
2021/06/11 08:46:58;;;;;;;5.93;3.30;;;;;;;-140.79;100.00;63287.88;4919815;29;20042;-76
2021/06/11 08:49:24;;;;;;;5.93;3.55;;;;;;;-140.79;100.00;63287.88;4933072;29;20074;-76
2021/06/11 08:51:52;;;;;;;4.43;3.30;;;;;;;-140.79;100.00;63287.88;4951753;29;20023;-77
2021/06/11 08:54:18;;;;;;;4.32;3.20;;;;;;;-140.79;100.00;63287.88;4951658;29;20031;-77
2021/06/11 08:56:44;;;;;;;4.07;3.08;;;;;;;-140.79;100.00;63287.88;4951508;29;20019;-77
2021/06/11 08:59:09;;;;;;;4.55;3.30;;;;;;;-140.79;100.00;63287.88;4944637;29;20042;-77
2021/06/11 09:01:35;;;;;;;4.45;3.08;;;;;;;-140.79;100.00;63287.88;4951552;29;20039;-77
2021/06/11 09:04:00;;;;;;;5.65;3.78;;;;;;;-140.79;100.00;63287.88;4950051;29;20524;-77
2021/06/11 09:06:26;;;;;;;3.95;3.05;;;;;;;-140.79;100.00;63287.88;4949365;29;20036;-77
2021/06/11 09:09:01;;;;;;;4.22;3.17;;;;;;;-140.79;100.00;63287.88;4950973;29;20030;-77
2021/06/11 09:11:33;;;;;;;3.33;3.00;;;;;;;-140.79;100.00;63287.88;4934983;29;20031;-76
2021/06/11 09:14:04;;;;;;;3.90;2.92;;;;;;;-140.79;100.00;63287.88;4942065;29;20027;-76
2021/06/11 09:16:30;;;;;;;4.32;3.17;;;;;;;-140.79;100.00;63287.88;4939938;29;20509;-76
2021/06/11 09:18:59;;;;;;;5.32;2.80;;;;;;;-140.79;100.00;63287.88;4930205;29;20035;-76
2021/06/11 09:21:25;;;;;;;4.77;3.13;;;;;;;-140.79;100.00;63287.88;4931684;29;20496;-75
2021/06/11 09:26:57;;;;;;;4.53;3.20;;;;;;;-140.79;100.00;63287.88;4936263;29;20036;-73
2021/06/11 09:29:30;;;;;;;3.53;2.85;;;;;;;-140.79;100.00;63287.88;4919763;29;20071;-76
2021/06/11 09:32:30;;;;;;;5.13;3.28;;;;;;;-140.79;100.00;63287.88;4930969;29;20062;-72
2021/06/11 09:34:57;;;;;;;3.67;3.00;;;;;;;-140.79;100.00;63287.88;4932365;29;20043;-72
2021/06/11 09:37:27;;;;;;;5.05;3.03;;;;;;;-140.79;100.00;63287.88;4936557;29;20051;-73
2021/06/11 09:40:13;;;;;;;4.75;2.83;;;;;;;-140.79;100.00;63287.88;4929121;29;20031;-78
2021/06/11 09:42:40;;;;;;;4.22;3.05;;;;;;;-140.79;100.00;63287.88;4947072;29;20110;-79
2021/06/11 09:45:13;;;;;;;3.90;3.08;;;;;;;-140.79;100.00;63287.88;4931510;29;20063;-78
2021/06/11 09:47:44;;;;;;;4.97;2.90;;;;;;;-140.79;100.00;63287.88;4930623;29;20043;-78
2021/06/11 09:50:10;;;;;;;6.15;2.78;;;;;;;-140.79;100.00;63287.88;4932110;29;20031;-78
2021/06/11 09:53:00;;;;;;;2.95;2.63;;;;;;;-140.79;100.00;63287.88;4930531;29;20423;-74
2021/06/11 09:55:46;;;;;;;4.80;3.08;;;;;;;-140.79;100.00;63287.88;4931396;29;20439;-75
2021/06/11 09:58:22;;;;;;;4.22;2.80;;;;;;;-140.79;100.00;63287.88;4942428;29;20358;-73
2021/06/11 10:00:54;;;;;;;3.83;2.70;;;;;;;-140.79;100.00;63287.88;4944565;29;20491;-79
2021/06/11 10:03:29;;;;;;;5.18;2.70;;;;;;;-140.79;100.00;63287.88;4943513;29;20062;-80
2021/06/11 10:05:57;;;;;;;3.33;3.00;;;;;;;-140.79;100.00;63287.88;4944208;29;20067;-79
2021/06/11 10:08:23;;;;;;;3.70;3.25;;;;;;;-140.79;100.00;63287.88;4944994;29;20070;-79
2021/06/11 10:10:50;;;;;;;5.80;3.25;;;;;;;-140.79;100.00;63287.88;4930929;29;20032;-79
2021/06/11 10:13:16;;;;;;;3.47;2.75;;;;;;;-140.79;100.00;63287.88;4924631;29;20035;-80
2021/06/11 10:15:43;;;;;;;3.80;2.85;;;;;;;-140.79;100.00;63287.88;4909335;29;20028;-79
2021/06/11 10:18:08;;;;;;;3.28;2.80;;;;;;;-140.79;100.00;63287.88;4919184;29;20032;-78
2021/06/11 10:20:34;;;;;;;4.55;2.70;;;;;;;-140.79;100.00;63287.88;4897998;29;20385;-78
2021/06/11 10:23:00;;;;;;;4.25;3.00;;;;;;;-140.79;100.00;63287.88;4919869;29;20043;-79
2021/06/11 10:25:26;;;;;;;4.40;2.53;;;;;;;-140.79;100.00;63287.88;4926598;29;20487;-78
2021/06/11 10:27:51;;;;;;;3.78;2.80;;;;;;;-140.79;100.00;63287.88;4926104;29;20046;-80
2021/06/11 10:30:17;;;;;;;3.35;2.72;;;;;;;-140.79;100.00;63287.88;4933472;29;20063;-79
2021/06/11 10:32:45;;;;;;;4.30;2.70;;;;;;;-140.79;100.00;63287.88;4917138;29;20428;-79
2021/06/11 10:35:11;;;;;;;3.63;2.75;;;;;;;-140.79;100.00;63287.88;4913523;29;20032;-79
2021/06/11 10:37:38;;;;;;;3.83;2.90;;;;;;;-140.79;100.00;63287.88;4922961;29;20841;-78
2021/06/11 10:40:34;;;;;;;4.75;3.22;;;;;;;-140.79;100.00;63287.88;4919511;29;20066;-78
2021/06/11 10:43:19;;;;;;;3.97;2.90;;;;;;;-140.79;100.00;63287.88;4905575;29;20526;-79
2021/06/11 10:45:44;;;;;;;6.18;3.08;;;;;;;-140.79;100.00;63287.88;4920326;29;20509;-79
2021/06/11 10:48:10;;;;;;;3.67;3.25;;;;;;;-140.79;100.00;63287.88;4926053;29;20032;-80
2021/06/11 10:50:36;;;;;;;3.67;2.80;;;;;;;-140.79;100.00;63287.88;4914951;29;20088;-79
2021/06/11 10:53:10;;;;;;;3.50;2.83;;;;;;;-140.79;100.00;63287.88;4922619;29;20447;-79
2021/06/11 10:55:36;;;;;;;3.42;2.72;;;;;;;-140.79;100.00;63287.88;4904020;29;20526;-79
2021/06/11 10:58:02;;;;;;;4.75;2.90;;;;;;;-140.79;100.00;63287.88;4923195;29;20495;-72
2021/06/11 11:00:33;;;;;;;6.45;2.90;;;;;;;-140.79;100.00;63287.88;4927050;29;20039;-75
2021/06/11 11:03:01;;;;;;;6.30;3.30;;;;;;;-140.79;100.00;63287.88;4918933;29;20088;-75
2021/06/11 11:05:36;;;;;;;5.15;2.90;;;;;;;-140.79;100.00;63287.88;4918780;29;20024;-75
2021/06/11 11:08:07;;;;;;;7.47;2.97;;;;;;;-140.79;100.00;63287.88;4933332;29;20024;-77
2021/06/11 11:10:42;;;;;;;6.35;2.97;;;;;;;-140.79;100.00;63287.88;4918500;29;20559;-77
2021/06/11 11:13:27;;;;;;;7.68;3.00;;;;;;;-140.79;100.00;63287.88;4912302;29;20692;-76
2021/06/11 11:15:55;;;;;;;6.47;2.85;;;;;;;-140.79;100.00;63287.88;4943961;29;20070;-78